Swift Current Airport
CYYN : now visible

Airfield :











YOU CAN JOIN US ON...

 
LOGIN :

Register | Disclaimer

   EN    FR    IT 

 









Legend :    VFR   Marginal VFR   IFR   Intensive IFR   Very Intensive IFR
Visi :
Ceiling :
>= 8 km
>= 3000ft
5 to 8 km
1000 to 3000 ft
1500m to 5 km
500 to 1000 ft
800 to 1500m
200 to 500 ft
< 800m
< 200 ft
Symbols :   Thunderstorms  Fog  Heavy snow  Heavy precipitations  Wind > 20 kt






- Airport Elevation : 2680 ft
- IATA code : YYN


CYYN - Swift Current

CURRENT METAR :
  • 031300Z AUTO 17008KT 9SM FEW081 OVC110 22/08 A3002 RMK SLP147 DENSITY ALT 4100FT

EXPIRED METARs :
  • 031200Z AUTO 14008KT 9SM OVC110 22/07 A3002 RMK SLP146 DENSITY ALT 4000FT
  • 031100Z AUTO 11007KT 9SM BKN130 OVC170 23/07 A3002 RMK SLP143 DENSITY ALT 4100FT
  • 031000Z AUTO 13006KT 9SM OVC120 23/08 A3003 RMK SLP149 DENSITY ALT 4100FT

TAF TAF CYYN
Valid from the 03 at 12:00 until the 04 at 00:00 UTC


031138Z 0312/0324 12008KT P6SM OVC120
TEMPO 0312/0318 5SM -SHRA FU BKN080 OVC120
BECMG 0315/0317 21015G25KT
FM031800 24015G25KT 6SM FU BKN080 OVC120
TEMPO 0318/0324 3SM -SHRA VCTS FU BKN040CB OVC080 RMK FCST BASED ON AUTO OBS. NXT FCST BY 031800Z
CZWG FIR / North America



MET'MAP, your aeronautical weather chart ! - Copyright ORBIFLY December 2007 - Disclaimer

ORBIFLY MET'MAP TEAM :

Programming & Development : Alexandra Zaïnal
Concept & original design : Baudouin d'Aumeries
Assistance for programming : Marc-Olivier Méhu
Technical & hardware support : Manuel Goepfert

Contact : metmap@orbifly.com




SOURCES & CREDITS :

   NOAA       Earth
Advisory